Un Karadeniz — TCTD3 — position and weather

sailwx.info

Track history (hours):
 
Tides and Currents Weather Stations Pressure Air Temp Water Temp Dewpoint Dewpoint Depression Visibility Wind Speed Wind Dir Waves Ship Positions

Un Karadeniz

Last reported at 2017-Jan-23 03:15 UTC. Time now 2017-Jan-23 12:45 UTC.
Position N 43°50' E 014°22'.

Length 193 m; draft 7 m.

Type: Ship (hazmat cat A). MMSI: 271002571.

Date/timePositionNaut miles runAvg speedWind from/ knotsBaromVisibWave heightAir tempDewpointWater temp
2017-Jan-23 03:15N 43°50' E 014°22'1319.1
2017-Jan-23 02:33N 43°60' E 014°11'1919.0
2017-Jan-23 01:33N 44°15' E 013°55'1919.2
2017-Jan-23 00:33N 44°31' E 013°41'1919.3
2017-Jan-22 23:33N 44°48' E 013°26'1919.2
2017-Jan-22 22:33N 45°04' E 013°12'1918.5
2017-Jan-22 21:33N 45°22' E 013°03'1918.6
2017-Jan-22 20:33N 45°34' E 013°23'1616.1
2017-Jan-22 19:34N 45°39' E 013°45'0 0.1
2017-Jan-22 18:32N 45°38' E 013°45'0 0.0
2017-Jan-22 17:29N 45°38' E 013°45'0 0.0
2017-Jan-22 16:31N 45°38' E 013°45'0 0.0
2017-Jan-22 15:33N 45°38' E 013°45'0 0.0
2017-Jan-22 14:24N 45°38' E 013°45'0 0.0
2017-Jan-22 13:33N 45°38' E 013°45'0 0.0
2017-Jan-22 12:32N 45°38' E 013°45'0 0.0
2017-Jan-22 11:32N 45°38' E 013°45'0 0.0
2017-Jan-22 10:31N 45°38' E 013°45'0 0.0
2017-Jan-22 09:28N 45°38' E 013°45'0 0.0
2017-Jan-22 08:31N 45°38' E 013°45'0 0.0
2017-Jan-22 07:33N 45°38' E 013°45'0 0.0
2017-Jan-22 06:33N 45°38' E 013°45'0 0.0
2017-Jan-22 05:26N 45°38' E 013°45'0 0.0
2017-Jan-22 04:32N 45°38' E 013°45'0 0.0
2017-Jan-22 03:31N 45°38' E 013°45'0 0.0
2017-Jan-22 02:28N 45°38' E 013°45'0 0.0
2017-Jan-22 01:25N 45°38' E 013°45'0 0.0
2017-Jan-22 00:24N 45°38' E 013°45'0 0.0
2017-Jan-21 23:33N 45°38' E 013°45'0 0.0
2017-Jan-21 22:32N 45°38' E 013°45'0 0.0
2017-Jan-21 21:29N 45°38' E 013°45'0 0.0
2017-Jan-21 20:31N 45°38' E 013°45'0 0.0
2017-Jan-21 19:28N 45°38' E 013°45'0 0.0
2017-Jan-21 18:31N 45°38' E 013°45'0 0.0
2017-Jan-21 17:33N 45°38' E 013°45'0 0.0
2017-Jan-21 16:33N 45°38' E 013°45'0 0.0
2017-Jan-21 15:32N 45°38' E 013°45'0 0.0
2017-Jan-21 14:32N 45°38' E 013°45'0 0.0
2017-Jan-21 13:28N 45°38' E 013°45'0 0.0
2017-Jan-21 12:31N 45°38' E 013°45'0 0.0
2017-Jan-21 11:31N 45°38' E 013°45'0 0.0
2017-Jan-21 10:33N 45°38' E 013°45'0 0.0
2017-Jan-21 09:24N 45°38' E 013°45'0 0.0
2017-Jan-21 08:32N 45°38' E 013°45'0 0.0
2017-Jan-21 07:32N 45°38' E 013°45'0 0.0
2017-Jan-21 06:19N 45°38' E 013°45'0 0.0
2017-Jan-21 05:31N 45°38' E 013°45'0 0.0
2017-Jan-21 04:28N 45°38' E 013°45'0 0.0
2017-Jan-21 03:33N 45°38' E 013°45'0 0.0
2017-Jan-21 02:33N 45°38' E 013°45'0 0.0
2017-Jan-21 01:32N 45°38' E 013°45'0 0.0
2017-Jan-21 00:32N 45°38' E 013°45'0 0.0
2017-Jan-20 23:25N 45°38' E 013°45'0 0.0
2017-Jan-20 22:31N 45°38' E 013°45'0 0.0
2017-Jan-20 21:31N 45°38' E 013°45'0 0.0
2017-Jan-20 20:33N 45°38' E 013°45'0 0.0
2017-Jan-20 19:33N 45°39' E 013°45'3 3.0
2017-Jan-20 18:33N 45°40' E 013°41'0 0.1
2017-Jan-20 17:33N 45°40' E 013°41'0 0.0
2017-Jan-20 16:33N 45°40' E 013°41'7 6.9
2017-Jan-20 15:33N 45°36' E 013°33'1111.0
2017-Jan-20 14:33N 45°29' E 013°21'1211.7
2017-Jan-20 13:33N 45°18' E 013°15'1312.9
2017-Jan-20 12:33N 45°06' E 013°20'1312.7
2017-Jan-20 11:33N 44°54' E 013°26'1312.5
2017-Jan-20 10:33N 44°43' E 013°35'1312.6
2017-Jan-20 09:33N 44°33' E 013°45'1312.7
2017-Jan-20 08:33N 44°22' E 013°55'61915.5
2017-Jan-18 16:28N 37°48' E 024°29'4319.7
2017-Jan-18 14:15N 38°27' E 024°54'43 0.8
2017-Jan-16 10:26N 37°47' E 024°33'59815.4
2017-Jan-14 19:33N 43°59' E 014°12'1313.1
2017-Jan-14 18:33N 44°09' E 014°01'1919.0
2017-Jan-14 17:33N 44°25' E 013°47'1919.1
2017-Jan-14 16:33N 44°41' E 013°32'1919.2
2017-Jan-14 15:33N 44°57' E 013°18'1919.2
2017-Jan-14 14:33N 45°14' E 013°04'1717.4
2017-Jan-14 13:33N 45°30' E 013°14'1918.6
2017-Jan-14 12:33N 45°39' E 013°37'5 5.1
2017-Jan-14 11:29N 45°39' E 013°45'0 0.0
2017-Jan-14 10:29N 45°39' E 013°45'0 0.0
2017-Jan-14 09:31N 45°39' E 013°45'0 0.0
2017-Jan-14 08:31N 45°39' E 013°45'0 0.0
2017-Jan-14 07:31N 45°39' E 013°45'0 0.0
2017-Jan-14 06:33N 45°39' E 013°45'0 0.0
2017-Jan-14 05:33N 45°39' E 013°45'0 0.0
2017-Jan-14 04:32N 45°39' E 013°45'0 0.0
2017-Jan-14 03:32N 45°39' E 013°45'0 0.0
2017-Jan-13 23:33N 45°39' E 013°45'0 0.0
2017-Jan-13 22:33N 45°39' E 013°45'1 0.8
2017-Jan-13 21:33N 45°39' E 013°44'1716.8
2017-Jan-13 20:33N 45°30' E 013°24'1717.4
2017-Jan-13 19:33N 45°14' E 013°15'2019.7
2017-Jan-13 18:33N 44°55' E 013°26'2019.8
2017-Jan-13 17:33N 44°39' E 013°41'2019.7
2017-Jan-13 16:33N 44°22' E 013°55'2119.6
2017-Jan-13 15:29N 44°05' E 014°12'  
Track history (hours):
 
Tides and Currents Weather Stations Pressure Air Temp Water Temp Dewpoint Dewpoint Depression Visibility Wind Speed Wind Dir Waves Ship Positions

Un Karadeniz

Last reported at 2017-Jan-23 03:15 UTC. Time now 2017-Jan-23 12:45 UTC.
Position N 43°50' E 014°22'.

Length 193 m; draft 7 m.

Type: Ship (hazmat cat A). MMSI: 271002571.

Date/timePositionNaut miles runAvg speedWind from/ knotsBaromVisibWave heightAir tempDewpointWater temp
2017-Jan-23 03:15N 43°50' E 014°22'1319.1
2017-Jan-23 02:33N 43°60' E 014°11'1919.0
2017-Jan-23 01:33N 44°15' E 013°55'1919.2
2017-Jan-23 00:33N 44°31' E 013°41'1919.3
2017-Jan-22 23:33N 44°48' E 013°26'1919.2
2017-Jan-22 22:33N 45°04' E 013°12'1918.5
2017-Jan-22 21:33N 45°22' E 013°03'1918.6
2017-Jan-22 20:33N 45°34' E 013°23'1616.1
2017-Jan-22 19:34N 45°39' E 013°45'0 0.1
2017-Jan-22 18:32N 45°38' E 013°45'0 0.0
2017-Jan-22 17:29N 45°38' E 013°45'0 0.0
2017-Jan-22 16:31N 45°38' E 013°45'0 0.0
2017-Jan-22 15:33N 45°38' E 013°45'0 0.0
2017-Jan-22 14:24N 45°38' E 013°45'0 0.0
2017-Jan-22 13:33N 45°38' E 013°45'0 0.0
2017-Jan-22 12:32N 45°38' E 013°45'0 0.0
2017-Jan-22 11:32N 45°38' E 013°45'0 0.0
2017-Jan-22 10:31N 45°38' E 013°45'0 0.0
2017-Jan-22 09:28N 45°38' E 013°45'0 0.0
2017-Jan-22 08:31N 45°38' E 013°45'0 0.0
2017-Jan-22 07:33N 45°38' E 013°45'0 0.0
2017-Jan-22 06:33N 45°38' E 013°45'0 0.0
2017-Jan-22 05:26N 45°38' E 013°45'0 0.0
2017-Jan-22 04:32N 45°38' E 013°45'0 0.0
2017-Jan-22 03:31N 45°38' E 013°45'0 0.0
2017-Jan-22 02:28N 45°38' E 013°45'0 0.0
2017-Jan-22 01:25N 45°38' E 013°45'0 0.0
2017-Jan-22 00:24N 45°38' E 013°45'0 0.0
2017-Jan-21 23:33N 45°38' E 013°45'0 0.0
2017-Jan-21 22:32N 45°38' E 013°45'0 0.0
2017-Jan-21 21:29N 45°38' E 013°45'0 0.0
2017-Jan-21 20:31N 45°38' E 013°45'0 0.0
2017-Jan-21 19:28N 45°38' E 013°45'0 0.0
2017-Jan-21 18:31N 45°38' E 013°45'0 0.0
2017-Jan-21 17:33N 45°38' E 013°45'0 0.0
2017-Jan-21 16:33N 45°38' E 013°45'0 0.0
2017-Jan-21 15:32N 45°38' E 013°45'0 0.0
2017-Jan-21 14:32N 45°38' E 013°45'0 0.0
2017-Jan-21 13:28N 45°38' E 013°45'0 0.0
2017-Jan-21 12:31N 45°38' E 013°45'0 0.0
2017-Jan-21 11:31N 45°38' E 013°45'0 0.0
2017-Jan-21 10:33N 45°38' E 013°45'0 0.0
2017-Jan-21 09:24N 45°38' E 013°45'0 0.0
2017-Jan-21 08:32N 45°38' E 013°45'0 0.0
2017-Jan-21 07:32N 45°38' E 013°45'0 0.0
2017-Jan-21 06:19N 45°38' E 013°45'0 0.0
2017-Jan-21 05:31N 45°38' E 013°45'0 0.0
2017-Jan-21 04:28N 45°38' E 013°45'0 0.0
2017-Jan-21 03:33N 45°38' E 013°45'0 0.0
2017-Jan-21 02:33N 45°38' E 013°45'0 0.0
2017-Jan-21 01:32N 45°38' E 013°45'0 0.0
2017-Jan-21 00:32N 45°38' E 013°45'0 0.0
2017-Jan-20 23:25N 45°38' E 013°45'0 0.0
2017-Jan-20 22:31N 45°38' E 013°45'0 0.0
2017-Jan-20 21:31N 45°38' E 013°45'0 0.0
2017-Jan-20 20:33N 45°38' E 013°45'0 0.0
2017-Jan-20 19:33N 45°39' E 013°45'3 3.0
2017-Jan-20 18:33N 45°40' E 013°41'0 0.1
2017-Jan-20 17:33N 45°40' E 013°41'0 0.0
2017-Jan-20 16:33N 45°40' E 013°41'7 6.9
2017-Jan-20 15:33N 45°36' E 013°33'1111.0
2017-Jan-20 14:33N 45°29' E 013°21'1211.7
2017-Jan-20 13:33N 45°18' E 013°15'1312.9
2017-Jan-20 12:33N 45°06' E 013°20'1312.7
2017-Jan-20 11:33N 44°54' E 013°26'1312.5
2017-Jan-20 10:33N 44°43' E 013°35'1312.6
2017-Jan-20 09:33N 44°33' E 013°45'1312.7
2017-Jan-20 08:33N 44°22' E 013°55'61915.5
2017-Jan-18 16:28N 37°48' E 024°29'4319.7
2017-Jan-18 14:15N 38°27' E 024°54'43 0.8
2017-Jan-16 10:26N 37°47' E 024°33'59815.4
2017-Jan-14 19:33N 43°59' E 014°12'1313.1
2017-Jan-14 18:33N 44°09' E 014°01'1919.0
2017-Jan-14 17:33N 44°25' E 013°47'1919.1
2017-Jan-14 16:33N 44°41' E 013°32'1919.2
2017-Jan-14 15:33N 44°57' E 013°18'1919.2
2017-Jan-14 14:33N 45°14' E 013°04'1717.4
2017-Jan-14 13:33N 45°30' E 013°14'1918.6
2017-Jan-14 12:33N 45°39' E 013°37'5 5.1
2017-Jan-14 11:29N 45°39' E 013°45'0 0.0
2017-Jan-14 10:29N 45°39' E 013°45'0 0.0
2017-Jan-14 09:31N 45°39' E 013°45'0 0.0
2017-Jan-14 08:31N 45°39' E 013°45'0 0.0
2017-Jan-14 07:31N 45°39' E 013°45'0 0.0
2017-Jan-14 06:33N 45°39' E 013°45'0 0.0
2017-Jan-14 05:33N 45°39' E 013°45'0 0.0
2017-Jan-14 04:32N 45°39' E 013°45'0 0.0
2017-Jan-14 03:32N 45°39' E 013°45'0 0.0
2017-Jan-13 23:33N 45°39' E 013°45'0 0.0
2017-Jan-13 22:33N 45°39' E 013°45'1 0.8
2017-Jan-13 21:33N 45°39' E 013°44'1716.8
2017-Jan-13 20:33N 45°30' E 013°24'1717.4
2017-Jan-13 19:33N 45°14' E 013°15'2019.7
2017-Jan-13 18:33N 44°55' E 013°26'2019.8
2017-Jan-13 17:33N 44°39' E 013°41'2019.7
2017-Jan-13 16:33N 44°22' E 013°55'2119.6
2017-Jan-13 15:29N 44°05' E 014°12'  

Dump ship's entire track history